To NAV CANADA Home Page Login to a new session Search on AWWS site Feedback and Comments Disclaimer Vers la page française équivalente Tips FAQ What's new on the site To the Forecasts and Observations / NOTAM section To "File a Flight Plan" website Publications and other links Update of the User's profile FIC Telephone Numbers My Weather Data Folder Route Weather Data Regional Weather Data Local Weather Data To the Forecasts and Observations / NOTAM section
Request Generated 05/25/2017 at 01:15:29 UTC . Weather information available at that time is displayed.

METAR/TAF

LA RONGE (BARBER FIELD)/SK    

METAR CYVC 250100Z 05009KT 15SM OVC082 11/07 A2933 RMK AC8 SLP942
DENSITY ALT 1700FT=
METAR CYVC 250000Z 05011KT 15SM OVC085 11/08 A2931 RMK AC8 SLP935
DENSITY ALT 1700FT=
METAR CYVC 242300Z 04010KT 15SM OVC072 09/07 A2932 RMK AC8 SLP938
DENSITY ALT 1500FT=

TAF CYVC 250038Z 2501/2513 05012KT P6SM BKN080
FM250600 03010KT P6SM BKN060 TEMPO 2506/2513 P6SM -SHRA
RMK NXT FCST BY 250700Z=
Your time UTC time
Weather data provided by Environment Canada and NAV CANADA